Time;durP1;ratioP1;P1;durP2;ratioP2;P2;SDS_P1;SDS_P2;PMS_P1;PMS_P2;Temp;Humidity;BMP_temperature;BMP_pressure;BME280_temperature;BME280_humidity;BME280_pressure;Samples;Min_cycle;Max_cycle;Signal;HPM_P1;HPM_P2
2022/05/04 00:02:17;;;;;;;11.50;4.20;;;;;;;11.44;57.88;101457.72;4791095;29;119455;-79
2022/05/04 00:05:33;;;;;;;10.85;4.22;;;;;;;11.38;58.19;101454.75;4797318;29;119446;-79
2022/05/04 00:08:50;;;;;;;12.88;4.30;;;;;;;11.27;58.15;101452.31;4796658;29;119895;-79
2022/05/04 00:12:06;;;;;;;9.95;4.55;;;;;;;11.23;58.11;101456.38;4800285;29;119560;-78
2022/05/04 00:15:21;;;;;;;11.48;4.40;;;;;;;11.06;58.38;101455.66;4793142;29;120118;-79
2022/05/04 00:18:37;;;;;;;8.85;3.92;;;;;;;11.12;58.53;101470.41;4794544;29;119995;-79
2022/05/04 00:21:53;;;;;;;11.07;4.60;;;;;;;10.88;58.89;101438.88;4789904;29;120150;-79
2022/05/04 00:25:13;;;;;;;16.15;4.72;;;;;;;11.05;58.96;101470.59;4803633;29;119450;-79
2022/05/04 00:28:29;;;;;;;13.02;4.65;;;;;;;10.98;58.66;101471.56;4793951;29;119284;-79
2022/05/04 00:31:45;;;;;;;12.70;4.78;;;;;;;11.00;59.09;101469.13;4793773;29;119509;-79
2022/05/04 00:35:01;;;;;;;12.93;4.57;;;;;;;10.95;59.57;101466.94;4805344;29;119850;-79
2022/05/04 00:38:16;;;;;;;10.55;4.70;;;;;;;10.89;59.02;101465.94;4799166;29;119266;-79
2022/05/04 00:41:33;;;;;;;10.45;4.72;;;;;;;10.80;59.38;101463.03;4801061;29;119819;-79
2022/05/04 00:44:50;;;;;;;8.95;4.53;;;;;;;10.82;59.65;101463.34;4797238;29;119723;-79
2022/05/04 00:48:07;;;;;;;16.42;5.55;;;;;;;10.81;59.87;101463.78;4795004;29;119849;-79
2022/05/04 00:51:24;;;;;;;11.80;4.63;;;;;;;10.79;59.70;101466.97;4795485;29;120234;-79
2022/05/04 00:54:43;;;;;;;10.32;4.68;;;;;;;10.76;59.47;101465.09;4796666;29;119454;-79
2022/05/04 01:01:35;;;;;;;11.23;4.80;;;;;;;10.66;59.15;101460.66;4794224;29;119948;-79
2022/05/04 01:04:51;;;;;;;13.77;4.68;;;;;;;10.59;59.29;101458.84;4805699;29;119500;-80
2022/05/04 01:08:07;;;;;;;12.43;4.65;;;;;;;10.58;59.13;101462.03;4796737;29;119766;-79
2022/05/04 01:11:23;;;;;;;12.75;4.80;;;;;;;10.54;59.92;101469.59;4798956;29;119545;-79
2022/05/04 01:14:42;;;;;;;13.15;5.05;;;;;;;10.52;59.18;101466.50;4794284;29;119690;-79
2022/05/04 01:17:58;;;;;;;12.48;5.20;;;;;;;10.41;59.20;101464.81;4792944;29;119937;-79
2022/05/04 01:21:15;;;;;;;12.95;5.10;;;;;;;10.40;59.72;101467.97;4795266;29;119940;-80
2022/05/04 01:24:31;;;;;;;10.32;5.00;;;;;;;10.34;60.10;101464.97;4797566;29;119277;-79
2022/05/04 01:27:48;;;;;;;12.25;4.90;;;;;;;10.36;60.34;101475.50;4798293;29;120151;-79
2022/05/04 01:30:13;;;;;;;10.95;4.82;;;;;;;10.31;60.13;101456.81;4801316;29;119759;-78
2022/05/04 01:32:39;;;;;;;13.23;4.97;;;;;;;10.31;59.78;101460.34;4798987;29;119669;-79
2022/05/04 01:35:08;;;;;;;12.10;4.60;;;;;;;10.29;60.24;101460.00;4815532;29;119397;-78
2022/05/04 01:37:34;;;;;;;11.63;5.55;;;;;;;10.29;60.41;101468.22;4803609;29;119416;-79
2022/05/04 01:40:00;;;;;;;14.68;5.50;;;;;;;10.28;60.39;101469.44;4800119;29;120262;-79
2022/05/04 01:42:25;;;;;;;11.75;5.20;;;;;;;10.21;60.13;101463.34;4783716;29;119366;-78
2022/05/04 01:44:51;;;;;;;15.20;5.15;;;;;;;10.20;60.53;101468.03;4783281;29;119216;-79
2022/05/04 01:47:17;;;;;;;9.90;4.93;;;;;;;10.18;60.45;101466.94;4790963;29;119552;-79
2022/05/04 01:49:43;;;;;;;13.75;5.32;;;;;;;10.17;60.10;101466.13;4801898;29;119893;-79
2022/05/04 01:52:08;;;;;;;10.05;4.45;;;;;;;10.22;60.24;101471.16;4804041;29;119566;-78
2022/05/04 01:54:34;;;;;;;11.85;5.00;;;;;;;10.19;60.30;101461.03;4796830;29;120214;-79
2022/05/04 01:57:00;;;;;;;10.15;4.38;;;;;;;10.19;59.80;101461.03;4802261;29;119607;-78
2022/05/04 01:59:25;;;;;;;10.85;4.70;;;;;;;10.12;59.60;101456.44;4787994;29;119361;-78
2022/05/04 02:01:52;;;;;;;11.90;5.43;;;;;;;10.16;59.75;101470.06;4795672;29;119366;-79
2022/05/04 02:04:18;;;;;;;10.45;5.20;;;;;;;10.14;59.82;101467.75;4789790;29;119710;-78
2022/05/04 02:06:44;;;;;;;8.00;4.47;;;;;;;10.13;59.78;101470.94;4795640;29;119357;-78
2022/05/04 02:09:10;;;;;;;10.20;5.13;;;;;;;10.12;60.24;101466.66;4798472;29;119354;-79
2022/05/04 02:11:37;;;;;;;12.55;5.32;;;;;;;10.05;59.89;101458.59;4809390;29;119237;-78
2022/05/04 02:14:03;;;;;;;11.23;5.13;;;;;;;10.09;60.27;101462.78;4787754;29;120375;-79
2022/05/04 02:16:29;;;;;;;10.98;5.00;;;;;;;10.06;59.92;101462.88;4782477;29;119895;-79
2022/05/04 02:18:55;;;;;;;11.80;5.43;;;;;;;10.05;59.92;101464.09;4801361;29;119257;-79
2022/05/04 02:21:21;;;;;;;9.40;4.65;;;;;;;10.05;60.46;101466.81;4799527;29;119111;-78
2022/05/04 02:23:47;;;;;;;12.57;5.30;;;;;;;10.01;60.15;101466.13;4805198;29;119402;-79
2022/05/04 02:26:12;;;;;;;10.90;5.10;;;;;;;10.02;60.08;101462.97;4801029;29;119368;-79
2022/05/04 02:28:38;;;;;;;11.23;5.40;;;;;;;10.01;60.55;101466.13;4800801;29;119246;-78
2022/05/04 02:31:04;;;;;;;16.50;5.50;;;;;;;9.93;60.38;101451.03;4809204;29;119267;-78
2022/05/04 02:33:30;;;;;;;11.45;5.10;;;;;;;9.94;59.97;101449.88;4799636;29;119272;-79
2022/05/04 02:38:42;;;;;;;16.77;5.28;;;;;;;9.97;59.95;101449.00;4796533;29;120364;-79
2022/05/04 02:41:08;;;;;;;9.68;5.22;;;;;;;9.91;60.72;101439.75;4792968;29;119080;-79
2022/05/04 02:43:34;;;;;;;7.40;4.78;;;;;;;9.94;60.13;101444.38;4799175;29;119311;-79
2022/05/04 02:46:14;;;;;;;13.27;5.60;;;;;;;9.94;59.72;101449.88;4781163;29;120036;-79
2022/05/04 02:48:40;;;;;;;9.93;5.13;;;;;;;9.96;59.75;101452.94;4797495;29;119875;-79
2022/05/04 02:51:06;;;;;;;9.82;4.97;;;;;;;9.84;59.95;101438.72;4797423;29;119650;-78
2022/05/04 02:53:32;;;;;;;12.35;5.50;;;;;;;9.90;59.91;101449.16;4802721;29;119505;-79
2022/05/04 02:55:57;;;;;;;10.82;5.15;;;;;;;9.82;60.15;101432.88;4797956;29;119289;-78
2022/05/04 02:58:26;;;;;;;9.60;5.22;;;;;;;9.74;59.63;101423.28;4813199;29;119401;-78
2022/05/04 03:00:51;;;;;;;13.48;5.57;;;;;;;9.78;59.92;101445.91;4786262;29;120746;-78
2022/05/04 03:03:18;;;;;;;12.50;5.55;;;;;;;9.77;60.15;101438.88;4799604;29;119813;-78
2022/05/04 03:05:43;;;;;;;9.55;5.35;;;;;;;9.72;60.04;101435.88;4796193;29;121942;-79
2022/05/04 03:08:10;;;;;;;9.13;4.90;;;;;;;9.73;59.86;101438.19;4806956;29;119420;-78
2022/05/04 03:11:54;;;;;;;9.43;5.13;;;;;;;9.65;60.15;101428.56;4799728;29;120651;-78
2022/05/04 03:13:22;;;;;;;9.60;5.47;;;;;;;9.60;60.19;101431.06;4790198;29;120610;-78
2022/05/04 03:15:47;;;;;;;12.73;5.85;;;;;;;9.58;60.52;101428.75;4800760;29;119387;-78
2022/05/04 03:18:13;;;;;;;9.57;5.07;;;;;;;9.56;59.96;101427.63;4793767;29;119587;-79
2022/05/04 03:20:39;;;;;;;11.98;5.72;;;;;;;9.62;60.22;101440.38;4782072;29;120519;-78
2022/05/04 03:23:05;;;;;;;12.70;5.28;;;;;;;9.56;59.32;101422.16;4801248;29;120047;-78
2022/05/04 03:25:33;;;;;;;10.32;5.10;;;;;;;9.51;58.91;101426.16;4809673;29;119272;-78
2022/05/04 03:27:59;;;;;;;10.07;6.18;;;;;;;9.54;59.82;101433.53;4800368;29;119559;-79
2022/05/04 03:30:25;;;;;;;14.25;6.13;;;;;;;9.49;59.77;101425.81;4799925;29;119549;-78
2022/05/04 03:32:50;;;;;;;10.88;6.03;;;;;;;9.42;59.84;101415.78;4801882;29;119067;-78
2022/05/04 03:35:17;;;;;;;9.02;5.63;;;;;;;9.46;59.65;101432.91;4796985;29;119235;-79
2022/05/04 03:37:42;;;;;;;10.00;5.93;;;;;;;9.37;59.81;101413.53;4800151;29;119270;-78
2022/05/04 03:40:10;;;;;;;10.70;6.25;;;;;;;9.37;60.12;101426.47;4799942;29;119990;-78
2022/05/04 03:42:38;;;;;;;11.25;6.20;;;;;;;9.37;59.69;101432.72;4799454;29;119552;-78
2022/05/04 03:45:04;;;;;;;9.07;5.80;;;;;;;9.35;60.05;101426.09;4766084;29;119253;-78
2022/05/04 03:47:30;;;;;;;10.50;5.93;;;;;;;9.35;60.02;101426.09;4785617;29;119821;-78
2022/05/04 03:49:56;;;;;;;12.05;6.68;;;;;;;9.32;59.47;101426.97;4808010;29;119411;-78
2022/05/04 03:52:22;;;;;;;10.27;7.07;;;;;;;9.06;59.47;101401.28;4802381;29;122357;-78
2022/05/04 03:54:47;;;;;;;11.23;6.80;;;;;;;9.18;59.85;101428.78;4818678;29;119340;-79
2022/05/04 03:57:13;;;;;;;12.63;6.65;;;;;;;9.12;59.95;101424.22;4808836;29;119422;-78
2022/05/04 03:59:39;;;;;;;11.52;6.20;;;;;;;9.01;60.17;101418.22;4796478;29;120430;-78
2022/05/04 04:02:04;;;;;;;36.33;6.93;;;;;;;8.95;60.23;101420.66;4799653;29;119555;-78
2022/05/04 04:04:30;;;;;;;19.48;6.88;;;;;;;8.85;60.48;101432.59;4799524;29;119642;-79
2022/05/04 04:06:56;;;;;;;11.88;6.43;;;;;;;8.75;60.93;101420.63;4799808;29;122495;-79
2022/05/04 04:09:21;;;;;;;8.18;5.97;;;;;;;8.73;61.70;101420.28;4796541;29;119667;-78
2022/05/04 04:11:47;;;;;;;12.68;5.22;;;;;;;8.85;61.23;101432.59;4799357;29;119702;-78
2022/05/04 04:14:12;;;;;;;8.07;6.13;;;;;;;8.84;61.71;101426.34;4785586;29;119743;-78
2022/05/04 04:16:38;;;;;;;10.43;5.68;;;;;;;8.85;61.79;101438.06;4798307;29;119247;-79
2022/05/04 04:19:04;;;;;;;10.48;5.50;;;;;;;8.89;61.49;101438.75;4798091;29;121718;-78
2022/05/04 04:24:14;;;;;;;14.35;5.53;;;;;;;8.85;62.08;101443.53;4812660;29;119451;-78
2022/05/04 04:26:42;;;;;;;7.97;5.50;;;;;;;8.83;62.33;101441.22;4808109;29;120346;-78
2022/05/04 04:29:11;;;;;;;6.70;5.05;;;;;;;8.93;62.69;101458.59;4792369;29;119387;-78
2022/05/04 04:31:36;;;;;;;8.38;5.30;;;;;;;8.95;62.72;101458.97;4796193;29;119433;-78
2022/05/04 04:34:03;;;;;;;8.93;5.35;;;;;;;8.94;62.92;101446.47;4800170;29;119662;-78
2022/05/04 04:36:29;;;;;;;12.05;5.88;;;;;;;9.02;62.66;101458.06;4797195;29;119579;-78
2022/05/04 04:38:55;;;;;;;8.02;5.55;;;;;;;9.03;62.77;101454.13;4786765;29;120006;-79
2022/05/04 04:41:21;;;;;;;10.73;5.70;;;;;;;9.00;62.03;101449.50;4792849;29;119092;-78
2022/05/04 04:43:47;;;;;;;7.55;4.80;;;;;;;9.07;62.62;101466.56;4799599;29;119522;-79
2022/05/04 04:46:16;;;;;;;8.27;5.10;;;;;;;9.12;62.83;101463.31;4799214;29;119384;-78
2022/05/04 04:48:41;;;;;;;5.43;4.30;;;;;;;9.17;63.26;101460.09;4798038;29;119407;-78
2022/05/04 04:51:07;;;;;;;5.60;4.40;;;;;;;9.20;62.90;101459.25;4801914;29;119295;-78
2022/05/04 04:53:33;;;;;;;6.05;4.47;;;;;;;9.28;63.05;101459.13;4792014;29;119515;-78
2022/05/04 04:55:59;;;;;;;6.10;4.68;;;;;;;9.40;62.52;101464.72;4781163;29;119272;-79
2022/05/04 04:58:25;;;;;;;4.75;4.20;;;;;;;9.39;63.06;101463.16;4783027;29;119992;-78
2022/05/04 05:00:51;;;;;;;5.50;4.38;;;;;;;9.43;63.08;101454.88;4798728;29;119220;-79
2022/05/04 05:03:17;;;;;;;6.18;4.20;;;;;;;9.53;62.78;101465.63;4785867;29;119412;-78
2022/05/04 05:05:44;;;;;;;5.85;4.13;;;;;;;9.59;62.90;101454.16;4801926;29;119783;-78
2022/05/04 05:08:11;;;;;;;6.90;4.40;;;;;;;9.70;63.42;101471.91;4801377;29;119776;-79
2022/05/04 05:10:37;;;;;;;5.13;4.10;;;;;;;9.73;63.17;101462.84;4800630;29;119575;-79
2022/05/04 05:13:04;;;;;;;3.80;3.50;;;;;;;9.90;63.35;101466.38;4806009;29;119293;-78
2022/05/04 05:18:15;;;;;;;6.05;3.90;;;;;;;10.10;63.20;101469.06;4800703;29;119786;-78
2022/05/04 05:20:41;;;;;;;6.20;4.35;;;;;;;10.10;63.17;101460.81;4801852;29;120177;-78
2022/05/04 05:23:07;;;;;;;4.78;4.07;;;;;;;10.25;63.60;101470.28;4800699;29;119630;-79
2022/05/04 05:25:33;;;;;;;5.90;3.80;;;;;;;10.36;63.34;101470.78;4801020;29;120217;-79
2022/05/04 05:27:58;;;;;;;8.88;4.30;;;;;;;10.45;62.80;101470.22;4788117;29;119881;-78
2022/05/04 05:30:25;;;;;;;10.85;4.35;;;;;;;10.55;63.09;101471.13;4798308;29;119201;-78
2022/05/04 05:32:51;;;;;;;10.50;4.40;;;;;;;10.61;63.41;101469.41;4800878;29;119984;-79
2022/05/04 05:35:17;;;;;;;9.05;4.50;;;;;;;10.74;63.86;101478.47;4804718;29;119426;-79
2022/05/04 05:37:42;;;;;;;8.45;4.30;;;;;;;10.81;63.71;101467.31;4796672;29;119422;-79
2022/05/04 05:40:09;;;;;;;7.93;4.63;;;;;;;10.96;63.77;101462.22;4797307;29;119332;-80
2022/05/04 05:42:35;;;;;;;6.22;4.15;;;;;;;11.11;64.49;101457.84;4801469;29;119278;-79
2022/05/04 05:45:01;;;;;;;10.52;4.65;;;;;;;11.28;63.92;101464.06;4790693;29;119642;-80
2022/05/04 05:47:29;;;;;;;9.32;4.57;;;;;;;11.38;64.23;101454.75;4800340;29;119516;-79
2022/05/04 05:49:55;;;;;;;7.25;4.28;;;;;;;11.64;63.87;101478.31;4786159;29;120431;-79
2022/05/04 05:52:21;;;;;;;12.52;4.13;;;;;;;11.77;63.55;101474.78;4797708;29;120022;-80
2022/05/04 05:54:46;;;;;;;10.63;4.57;;;;;;;11.85;63.45;101463.19;4800571;29;119492;-79
2022/05/04 05:57:12;;;;;;;11.52;5.00;;;;;;;12.01;63.11;101473.28;4804787;29;121415;-79
2022/05/04 05:59:40;;;;;;;12.93;4.75;;;;;;;12.10;63.11;101469.88;4801408;29;119542;-79
2022/05/04 06:02:06;;;;;;;15.25;4.53;;;;;;;12.23;63.04;101467.88;4801126;29;121267;-79
2022/05/04 06:04:32;;;;;;;10.75;4.80;;;;;;;12.28;62.92;101465.31;4808342;29;119728;-79
2022/05/04 06:06:58;;;;;;;19.23;4.53;;;;;;;12.44;63.28;101460.91;4799632;29;119379;-79
2022/05/04 06:09:26;;;;;;;23.65;5.15;;;;;;;12.55;62.94;101464.09;4790138;29;119415;-80
2022/05/04 06:11:52;;;;;;;38.97;6.15;;;;;;;12.59;62.06;101461.97;4797800;29;119495;-79
2022/05/04 06:14:18;;;;;;;26.48;4.93;;;;;;;12.66;62.40;101458.97;4787725;29;119706;-79
2022/05/04 06:16:49;;;;;;;23.90;5.05;;;;;;;12.80;62.80;101461.25;4807031;29;119693;-79
2022/05/04 06:19:15;;;;;;;9.32;4.28;;;;;;;12.87;61.98;101449.97;4804457;29;119339;-79
2022/05/04 06:21:44;;;;;;;14.05;4.30;;;;;;;12.97;62.00;101461.03;4794541;29;119582;-80
2022/05/04 06:24:09;;;;;;;19.15;4.00;;;;;;;13.05;61.90;101456.84;4804080;29;120579;-79
2022/05/04 06:26:35;;;;;;;18.75;4.15;;;;;;;13.05;61.44;101456.84;4804750;29;119402;-79
2022/05/04 06:29:01;;;;;;;14.05;4.68;;;;;;;13.13;60.78;101461.63;4804530;29;119205;-79
2022/05/04 06:34:11;;;;;;;;;;;;;;;13.29;61.51;101468.97;4805409;29;119276;-79
2022/05/04 06:36:40;;;;;;;13.20;3.65;;;;;;;13.31;61.65;101452.00;4803997;29;119369;-80
2022/05/04 06:39:07;;;;;;;11.02;2.72;;;;;;;13.55;61.99;101474.31;4791203;29;121013;-83
2022/05/04 06:41:35;;;;;;;9.73;3.20;;;;;;;13.67;61.56;101468.69;4796565;29;120820;-79
2022/05/04 06:44:00;;;;;;;13.00;3.22;;;;;;;13.77;60.25;101464.00;4786946;29;121648;-79
2022/05/04 06:46:26;;;;;;;12.75;2.88;;;;;;;13.89;59.87;101463.13;4804622;29;119344;-80
2022/05/04 06:48:52;;;;;;;14.05;2.97;;;;;;;14.02;60.23;101463.03;4803735;29;119429;-80
2022/05/04 06:51:17;;;;;;;13.18;2.90;;;;;;;14.26;60.25;101482.56;4786513;29;120773;-79
2022/05/04 06:53:43;;;;;;;17.15;4.00;;;;;;;14.43;59.51;101472.78;4792198;29;119424;-79
2022/05/04 06:56:10;;;;;;;9.35;2.55;;;;;;;14.49;58.71;101464.69;4790883;29;119360;-79
2022/05/04 06:58:36;;;;;;;9.88;2.75;;;;;;;14.71;58.36;101468.09;4801614;29;121781;-79
2022/05/04 07:01:03;;;;;;;7.63;2.20;;;;;;;14.86;57.93;101473.75;4806282;29;119518;-79
2022/05/04 07:03:30;;;;;;;9.10;2.30;;;;;;;14.98;56.41;101470.84;4811463;29;119791;-81
2022/05/04 07:05:55;;;;;;;11.52;2.20;;;;;;;15.04;55.38;101468.22;4796899;29;119873;-82
2022/05/04 07:08:21;;;;;;;9.65;2.67;;;;;;;15.19;55.31;101474.66;4794876;29;119367;-79
2022/05/04 07:10:47;;;;;;;6.95;1.92;;;;;;;15.25;55.76;101472.81;4798659;29;119284;-80
2022/05/04 07:13:12;;;;;;;9.75;2.30;;;;;;;15.27;55.47;101475.88;4806415;29;119913;-79
2022/05/04 07:15:38;;;;;;;8.00;2.10;;;;;;;15.25;55.78;101467.28;4801341;29;120099;-79
2022/05/04 07:18:04;;;;;;;10.98;2.65;;;;;;;15.32;55.32;101469.72;4799895;29;122004;-79
2022/05/04 07:20:32;;;;;;;11.00;2.38;;;;;;;15.40;54.57;101484.00;4798477;29;120001;-80
2022/05/04 07:22:58;;;;;;;7.30;2.10;;;;;;;15.36;54.66;101472.31;4772522;29;120359;-79
2022/05/04 07:25:23;;;;;;;10.10;2.40;;;;;;;15.39;53.59;101476.94;4800288;29;119419;-79
2022/05/04 07:27:49;;;;;;;8.80;2.35;;;;;;;15.39;53.41;101479.69;4800995;29;119594;-80
2022/05/04 07:30:15;;;;;;;11.02;2.58;;;;;;;15.36;52.83;101480.59;4800913;29;120860;-79
2022/05/04 07:32:40;;;;;;;11.20;2.20;;;;;;;15.28;52.21;101482.94;4803097;29;119681;-79
2022/05/04 07:35:08;;;;;;;7.82;1.98;;;;;;;15.20;53.12;101486.50;4796064;29;119367;-80
2022/05/04 07:37:34;;;;;;;7.22;2.13;;;;;;;15.13;53.71;101490.31;4800793;29;120301;-80
2022/05/04 07:42:44;;;;;;;;;;;;;;;15.20;53.26;101503.84;4803200;29;119775;-80
2022/05/04 07:45:15;;;;;;;10.50;2.60;;;;;;;15.35;53.22;101498.44;4805287;29;119542;-80
2022/05/04 07:47:41;;;;;;;11.02;2.65;;;;;;;15.52;52.69;101498.84;4797451;29;119251;-80
2022/05/04 07:50:09;;;;;;;6.82;2.00;;;;;;;15.64;52.51;101489.66;4795576;29;119925;-80
2022/05/04 07:52:35;;;;;;;6.43;1.75;;;;;;;15.72;53.12;101490.09;4802901;29;119020;-80
2022/05/04 07:55:01;;;;;;;6.45;1.98;;;;;;;15.75;52.26;101489.91;4803349;29;119293;-80
2022/05/04 07:57:28;;;;;;;8.02;1.80;;;;;;;15.74;51.76;101496.69;4797866;29;119469;-80
2022/05/04 08:05:24;;;;;;;10.13;2.40;;;;;;;15.63;51.07;101497.19;4804185;29;121232;-80
2022/05/04 08:07:50;;;;;;;9.40;2.05;;;;;;;15.63;51.81;101499.19;4798143;29;119370;-79
2022/05/04 08:10:16;;;;;;;7.35;1.83;;;;;;;15.66;52.02;101492.72;4799177;29;120353;-79
2022/05/04 08:12:41;;;;;;;10.75;2.83;;;;;;;15.68;51.99;101487.47;4794573;29;119864;-80
2022/05/04 08:15:08;;;;;;;6.82;2.50;;;;;;;15.85;51.84;101498.94;4784962;29;120820;-80
2022/05/04 08:17:34;;;;;;;5.90;2.58;;;;;;;16.07;50.98;101495.91;4802290;29;119867;-80
2022/05/04 08:19:59;;;;;;;5.32;1.88;;;;;;;16.15;50.94;101484.06;4798111;29;119282;-80
2022/05/04 08:22:26;;;;;;;12.73;1.98;;;;;;;16.25;50.88;101484.75;4794035;29;119889;-79
2022/05/04 08:24:52;;;;;;;5.82;1.90;;;;;;;16.37;50.40;101491.31;4797472;29;119397;-80
2022/05/04 08:27:18;;;;;;;12.82;2.75;;;;;;;16.36;49.36;101498.84;4802239;29;119514;-79
2022/05/04 08:29:44;;;;;;;5.90;1.80;;;;;;;16.31;49.79;101495.94;4782071;29;121953;-80
2022/05/04 08:32:10;;;;;;;5.20;1.88;;;;;;;16.34;49.53;101497.78;4793197;29;119481;-80
2022/05/04 08:34:36;;;;;;;7.10;2.10;;;;;;;16.27;48.77;101502.44;4794955;29;119538;-80
2022/05/04 08:37:02;;;;;;;7.60;2.00;;;;;;;16.25;47.88;101501.38;4782192;29;122133;-80
2022/05/04 08:39:28;;;;;;;9.98;2.33;;;;;;;16.15;47.84;101492.34;4799671;29;119577;-80
2022/05/04 08:41:54;;;;;;;6.55;1.90;;;;;;;16.19;48.56;101506.03;4814555;29;119477;-80
2022/05/04 08:44:19;;;;;;;10.43;1.98;;;;;;;16.19;49.46;101506.03;4804126;29;119605;-79
2022/05/04 08:46:45;;;;;;;8.32;1.85;;;;;;;16.22;49.02;101496.78;4796276;29;119557;-80
2022/05/04 08:49:12;;;;;;;7.35;1.70;;;;;;;16.29;48.78;101496.41;4803612;29;119544;-80
2022/05/04 08:51:41;;;;;;;6.00;1.80;;;;;;;16.42;48.02;101501.75;4799548;29;119470;-80
2022/05/04 08:54:08;;;;;;;6.50;1.92;;;;;;;16.55;47.75;101511.31;4798817;29;120014;-79
2022/05/04 08:56:37;;;;;;;7.78;1.50;;;;;;;16.65;48.61;101495.44;4781148;29;121297;-80
2022/05/04 08:59:04;;;;;;;5.18;1.70;;;;;;;16.78;47.12;101486.88;4796605;29;119979;-80
2022/05/04 09:01:37;;;;;;;9.23;2.10;;;;;;;16.88;47.39;101496.66;4796540;29;119883;-79
2022/05/04 09:04:03;;;;;;;5.93;1.73;;;;;;;17.02;47.49;101501.47;4796897;29;120813;-79
2022/05/04 09:06:30;;;;;;;7.50;1.63;;;;;;;17.14;47.57;101496.91;4802818;29;119460;-80
2022/05/04 09:09:08;;;;;;;6.60;1.73;;;;;;;17.26;46.39;101497.84;4780950;29;119506;-79
2022/05/04 09:11:42;;;;;;;4.95;1.90;;;;;;;17.23;45.04;101493.28;4802280;29;123258;-80
2022/05/04 09:14:12;;;;;;;6.80;2.00;;;;;;;17.21;44.65;101496.53;4793648;29;119559;-79
2022/05/04 09:16:38;;;;;;;7.63;1.70;;;;;;;17.09;44.76;101484.47;4807750;29;120409;-79
2022/05/04 09:19:11;;;;;;;4.57;1.50;;;;;;;17.09;46.19;101506.66;4802012;29;119514;-80
2022/05/04 09:21:37;;;;;;;8.20;1.90;;;;;;;17.01;45.29;101501.94;4795720;29;119879;-80
2022/05/04 09:24:05;;;;;;;5.65;1.65;;;;;;;16.90;44.72;101490.66;4806942;29;120291;-79
2022/05/04 09:26:32;;;;;;;3.60;1.80;;;;;;;16.87;44.93;101506.22;4800185;29;119671;-80
2022/05/04 09:29:06;;;;;;;7.65;1.95;;;;;;;16.77;46.02;101493.66;4800588;29;119451;-79
2022/05/04 09:31:32;;;;;;;2.97;1.65;;;;;;;16.85;45.69;101490.06;4797721;29;119815;-79
2022/05/04 09:34:06;;;;;;;5.43;2.00;;;;;;;17.01;45.56;101502.69;4771636;29;119326;-79
2022/05/04 09:45:08;;;;;;;6.32;1.70;;;;;;;17.16;44.38;101506.28;4797623;29;119450;-79
2022/05/04 09:47:39;;;;;;;5.50;1.80;;;;;;;17.10;44.17;101502.63;4801395;29;119342;-79
2022/05/04 09:50:05;;;;;;;6.75;1.80;;;;;;;17.05;44.91;101495.00;4802322;29;119599;-79
2022/05/04 09:52:43;;;;;;;9.68;2.28;;;;;;;17.09;44.69;101478.94;4806176;29;121150;-79
2022/05/04 09:55:24;;;;;;;3.63;1.50;;;;;;;17.19;43.39;101499.00;4814879;29;119830;-79
2022/05/04 09:57:54;;;;;;;8.02;1.80;;;;;;;17.24;44.36;101486.47;4803633;29;119492;-79
2022/05/04 10:00:23;;;;;;;5.93;1.58;;;;;;;17.33;43.24;101487.19;4800915;29;119537;-79
2022/05/04 10:02:50;;;;;;;4.13;1.70;;;;;;;17.40;43.75;101481.22;4796658;29;119501;-79
2022/05/04 10:05:17;;;;;;;4.93;1.50;;;;;;;17.54;43.91;101474.16;4801916;29;119700;-79
2022/05/04 10:07:44;;;;;;;7.13;1.40;;;;;;;17.60;43.39;101483.34;4800481;29;120049;-79
2022/05/04 10:10:14;;;;;;;4.25;1.70;;;;;;;17.66;43.11;101484.19;4801455;29;120895;-79
2022/05/04 10:12:42;;;;;;;6.25;1.52;;;;;;;17.55;42.91;101463.84;4801824;29;119787;-79
2022/05/04 10:15:10;;;;;;;5.82;1.60;;;;;;;17.49;42.82;101485.91;4802505;29;119695;-79
2022/05/04 10:18:04;;;;;;;4.05;1.67;;;;;;;17.35;42.46;101481.16;4801494;29;119849;-80
2022/05/04 10:20:42;;;;;;;6.00;1.70;;;;;;;17.20;42.37;101472.81;4805805;29;119420;-79
2022/05/04 10:23:21;;;;;;;10.02;1.90;;;;;;;17.18;42.46;101481.59;4808309;29;119630;-79
2022/05/04 10:25:53;;;;;;;5.15;1.73;;;;;;;17.07;42.74;101475.88;4805496;29;120492;-80
2022/05/04 10:28:18;;;;;;;6.07;1.85;;;;;;;16.93;42.56;101475.84;4803540;29;119298;-79
2022/05/04 10:30:47;;;;;;;14.85;5.95;;;;;;;16.95;42.90;101485.22;4786100;29;119364;-79
2022/05/04 10:33:14;;;;;;;5.05;1.88;;;;;;;16.83;43.22;101473.16;4798381;29;120771;-79
2022/05/04 10:35:42;;;;;;;4.10;1.48;;;;;;;16.94;43.92;101482.91;4801007;29;119797;-79
2022/05/04 10:38:43;;;;;;;5.90;1.80;;;;;;;16.99;44.01;101485.03;4803318;29;119270;-79
2022/05/04 10:41:09;;;;;;;4.57;1.80;;;;;;;17.02;43.95;101489.59;4791176;29;121183;-79
2022/05/04 10:43:45;;;;;;;4.68;1.83;;;;;;;17.06;43.33;101485.44;4802569;29;119387;-79
2022/05/04 10:46:11;;;;;;;8.70;2.22;;;;;;;17.08;42.84;101485.72;4799712;29;121819;-79
2022/05/04 10:48:42;;;;;;;8.23;1.70;;;;;;;17.09;43.83;101478.16;4801439;29;119842;-80
2022/05/04 10:51:22;;;;;;;5.78;2.00;;;;;;;17.14;43.81;101474.72;4802233;29;119646;-79
2022/05/04 10:53:51;;;;;;;5.47;1.63;;;;;;;17.24;44.77;101480.94;4800259;29;122049;-79
2022/05/04 10:56:20;;;;;;;6.50;1.55;;;;;;;17.29;44.39;101485.84;4798692;29;119332;-79
2022/05/04 10:58:55;;;;;;;6.53;1.92;;;;;;;17.35;42.98;101483.91;4799621;29;119352;-79
2022/05/04 11:01:20;;;;;;;6.90;1.85;;;;;;;17.34;41.85;101480.38;4800274;29;120648;-79
2022/05/04 11:03:55;;;;;;;4.82;1.65;;;;;;;17.27;42.58;101477.19;4789404;29;119720;-79
2022/05/04 11:06:26;;;;;;;6.05;1.70;;;;;;;17.18;44.12;101473.28;4800846;29;119186;-79
2022/05/04 11:08:56;;;;;;;8.27;2.05;;;;;;;17.14;44.03;101480.28;4785730;29;119391;-79
2022/05/04 11:11:25;;;;;;;7.93;1.75;;;;;;;17.04;43.92;101470.53;4780110;29;120375;-79
2022/05/04 11:13:52;;;;;;;4.90;1.40;;;;;;;17.00;44.41;101473.47;4781424;29;122101;-79
2022/05/04 11:16:21;;;;;;;6.60;1.90;;;;;;;16.92;45.09;101475.06;4800222;29;119298;-79
2022/05/04 11:18:47;;;;;;;7.75;2.00;;;;;;;16.86;43.98;101465.91;4800515;29;119433;-79
2022/05/04 11:21:14;;;;;;;6.75;1.67;;;;;;;16.85;43.29;101478.22;4794909;29;119879;-79
2022/05/04 11:23:46;;;;;;;5.00;1.60;;;;;;;16.79;44.14;101472.56;4801309;29;119495;-79
2022/05/04 11:26:23;;;;;;;6.00;1.80;;;;;;;16.71;43.73;101473.41;4772422;29;120944;-79
2022/05/04 11:28:50;;;;;;;13.65;2.00;;;;;;;16.65;44.86;101473.28;4789598;29;120009;-79
2022/05/04 11:31:18;;;;;;;8.13;1.83;;;;;;;16.57;44.07;101459.03;4798408;29;119693;-80
2022/05/04 11:33:48;;;;;;;7.07;1.67;;;;;;;16.58;45.81;101468.09;4781259;29;122372;-80
2022/05/04 11:36:18;;;;;;;7.55;1.52;;;;;;;16.58;45.98;101471.63;4797337;29;119548;-79
2022/05/04 11:38:46;;;;;;;6.28;1.70;;;;;;;16.68;45.60;101469.56;4775918;29;121054;-79
2022/05/04 11:41:13;;;;;;;8.63;1.58;;;;;;;16.74;44.49;101466.91;4792871;29;119863;-79
2022/05/04 11:43:39;;;;;;;8.18;1.50;;;;;;;16.78;44.13;101453.63;4792724;29;119477;-80
2022/05/04 11:46:10;;;;;;;4.25;1.67;;;;;;;16.72;44.01;101450.75;4799133;29;119746;-79
2022/05/04 11:48:44;;;;;;;3.58;1.75;;;;;;;16.75;43.57;101465.66;4802501;29;120153;-79
2022/05/04 11:51:10;;;;;;;;;;;;;;;16.66;43.62;101466.50;4796709;29;119845;-79
2022/05/04 11:53:37;;;;;;;5.72;1.58;;;;;;;16.58;43.10;101463.31;4802636;29;120394;-79
2022/05/04 11:56:04;;;;;;;6.10;1.73;;;;;;;16.55;43.48;101460.72;4796197;29;119477;-79
2022/05/04 11:58:37;;;;;;;7.70;2.00;;;;;;;16.53;44.01;101463.19;4799172;29;119348;-79
2022/05/04 12:01:06;;;;;;;5.82;1.63;;;;;;;16.48;44.00;101441.69;4794978;29;120766;-79
2022/05/04 12:03:35;;;;;;;5.68;1.40;;;;;;;16.56;43.25;101454.72;4791339;29;120030;-80
2022/05/04 12:06:04;;;;;;;4.45;1.35;;;;;;;16.62;43.14;101452.06;4799568;29;119446;-79
2022/05/04 12:08:31;;;;;;;6.25;1.83;;;;;;;16.68;44.15;101452.19;4803853;29;119984;-79
2022/05/04 12:10:58;;;;;;;11.70;2.08;;;;;;;16.78;43.35;101453.63;4803062;29;119589;-79